< < Back
Terminal Aerodrome Forecast


Current Version              Previous Versions:   1  2  3  4  5  6  7  8  9  

Terminal Aerodrome Forecast

201
FTUS42 KJAX 261000 AAA
TAFSSI
TAF AMD
KSSI 261000Z 2610/2706 24007KT P6SM BKN035
     FM261300 27011G20KT P6SM SCT060
     FM261700 27015G23KT P6SM SCT035=



Latest METAR

565
SAUS70 KWBC 262000 RRA
MTRSSI
METAR KSSI 261953Z AUTO 27015G22KT 10SM BKN044 13/03 A2977 RMK AO2
SLP080 T01280033


USA.gov is the U.S. government's official web portal to all federal, state and local government web resources and services.